createdAt,value
2019-01-21T08:50:22.263Z,-0.86
2019-01-21T08:56:00.996Z,-0.62
2019-01-21T09:02:04.386Z,-0.15
2019-01-21T09:07:54.600Z,0.39
2019-01-21T09:13:47.687Z,0.98
2019-01-21T09:19:26.827Z,1.38
2019-01-21T09:25:17.760Z,1.62
2019-01-21T09:30:58.818Z,1.99
2019-01-21T09:36:43.456Z,2.34
2019-01-21T09:42:31.524Z,2.62
2019-01-21T09:47:34.039Z,2.83
2019-01-21T09:52:37.926Z,3.18
2019-01-21T09:57:41.779Z,3.47
2019-01-21T10:02:49.435Z,3.78
2019-01-21T10:08:33.218Z,4.13
2019-01-21T10:14:23.700Z,4.39
2019-01-21T10:20:01.248Z,4.58
2019-01-21T10:25:40.489Z,4.75
2019-01-21T10:31:17.102Z,5.18
2019-01-21T10:36:58.802Z,5.46
2019-01-21T10:42:52.239Z,5.66
2019-01-21T10:48:04.520Z,6.07
2019-01-21T10:53:40.445Z,6.36
2019-01-21T10:59:28.638Z,6.63
2019-01-21T11:05:16.194Z,6.65
2019-01-21T11:11:01.522Z,6.90
2019-01-21T11:16:39.848Z,7.21
2019-01-21T11:22:18.223Z,7.58
2019-01-21T11:27:51.857Z,7.70
2019-01-21T11:33:34.218Z,8.02
2019-01-21T11:39:28.799Z,8.28
2019-01-21T11:45:14.117Z,8.41
2019-01-21T11:50:56.422Z,8.43
2019-01-21T11:56:48.103Z,8.81
2019-01-21T12:02:17.684Z,8.80
2019-01-21T12:08:08.676Z,8.80
2019-01-21T12:13:53.782Z,8.93
2019-01-21T12:19:29.860Z,8.99
2019-01-21T12:25:11.654Z,9.20
2019-01-21T12:30:41.700Z,9.39
2019-01-21T12:36:03.634Z,9.30
2019-01-21T12:41:44.640Z,9.39
2019-01-21T12:47:26.006Z,9.61
2019-01-21T12:53:08.488Z,9.58
2019-01-21T12:58:37.466Z,9.72
2019-01-21T13:04:46.854Z,9.89
2019-01-21T13:10:35.547Z,10.00
2019-01-21T13:16:20.438Z,10.08
2019-01-21T13:21:58.662Z,10.00
2019-01-21T13:27:16.498Z,10.05
2019-01-21T13:32:51.600Z,9.94
2019-01-21T13:38:28.862Z,9.96
2019-01-21T13:44:17.080Z,10.04
2019-01-21T13:49:27.920Z,10.05
2019-01-21T13:55:01.657Z,9.94
2019-01-21T14:00:35.909Z,9.94
2019-01-21T14:06:21.304Z,9.80
2019-01-21T14:12:08.710Z,9.64
2019-01-21T14:18:21.498Z,9.43
2019-01-21T14:24:15.702Z,9.38
2019-01-21T14:29:47.394Z,9.47
2019-01-21T14:35:00.321Z,9.45
2019-01-21T14:40:48.183Z,9.35
2019-01-21T14:46:28.383Z,9.32
2019-01-21T14:52:22.540Z,9.41
2019-01-21T14:58:03.032Z,9.45
2019-01-21T15:03:36.124Z,9.39
2019-01-21T15:08:49.767Z,9.37
2019-01-21T15:14:05.690Z,9.28
2019-01-21T15:19:20.587Z,9.24
2019-01-21T15:25:12.472Z,9.21
2019-01-21T15:30:59.087Z,9.17
2019-01-21T15:36:43.870Z,9.18
2019-01-21T15:42:28.078Z,9.17
2019-01-21T15:48:17.400Z,9.15
2019-01-21T15:53:56.172Z,9.08
2019-01-21T15:59:14.490Z,8.99
2019-01-21T16:04:54.360Z,8.96
2019-01-21T16:10:33.476Z,8.84
2019-01-21T16:16:11.200Z,8.77
2019-01-21T16:22:14.612Z,8.66
2019-01-21T16:27:46.815Z,8.55
2019-01-21T16:33:21.139Z,8.39
2019-01-21T16:38:47.345Z,8.28
2019-01-21T16:43:52.823Z,8.22
2019-01-21T16:48:57.701Z,8.13
2019-01-21T16:54:03.325Z,8.06
2019-01-21T16:59:07.458Z,7.97
2019-01-21T17:04:11.350Z,7.83
2019-01-21T17:09:15.276Z,7.69
2019-01-21T17:14:19.200Z,7.59
2019-01-21T17:19:23.202Z,7.54
2019-01-21T17:24:27.204Z,7.41
2019-01-21T17:29:31.083Z,7.38
2019-01-21T17:34:34.980Z,7.34
2019-01-21T17:39:39.149Z,7.24
2019-01-21T17:44:43.207Z,7.16
2019-01-21T17:49:47.254Z,7.11
2019-01-21T17:54:51.393Z,7.06
2019-01-21T17:59:55.352Z,6.92
2019-01-21T18:04:59.363Z,6.86
2019-01-21T18:10:03.703Z,6.75
2019-01-21T18:15:09.495Z,6.71
2019-01-21T18:20:19.226Z,6.59
2019-01-21T18:25:23.272Z,6.49
2019-01-21T18:30:28.335Z,6.38
2019-01-21T18:35:32.456Z,6.29
2019-01-21T18:40:36.457Z,6.24
2019-01-21T18:45:40.484Z,6.22
2019-01-21T18:50:44.456Z,6.17
2019-01-21T18:55:48.572Z,6.08
2019-01-21T19:00:52.627Z,6.04
2019-01-21T19:05:56.539Z,5.98
2019-01-21T19:11:00.438Z,5.87
2019-01-21T19:16:04.358Z,5.79
2019-01-21T19:21:08.301Z,5.72
2019-01-21T19:26:12.213Z,5.62
2019-01-21T19:31:16.301Z,5.57
2019-01-21T19:36:20.384Z,5.53
2019-01-21T19:41:24.354Z,5.47
2019-01-21T19:46:28.322Z,5.40
2019-01-21T19:51:32.383Z,5.32
2019-01-21T19:56:36.460Z,5.33
2019-01-21T20:01:40.514Z,5.29
2019-01-21T20:06:44.546Z,5.25
2019-01-21T20:11:48.467Z,5.17
2019-01-21T20:16:52.478Z,5.11
2019-01-21T20:21:56.588Z,5.05
2019-01-21T20:27:00.873Z,5.02
2019-01-21T20:32:04.868Z,4.96
2019-01-21T20:37:09.098Z,4.89
2019-01-21T20:42:13.056Z,4.85
2019-01-21T20:47:17.036Z,4.82
2019-01-21T20:52:21.164Z,4.75
2019-01-21T20:57:25.290Z,4.72
2019-01-21T21:02:29.278Z,4.59
2019-01-21T21:07:33.460Z,4.52
2019-01-21T21:12:37.593Z,4.48
2019-01-21T21:17:41.760Z,4.45
2019-01-21T21:22:45.920Z,4.39
2019-01-21T21:27:50.126Z,4.34
2019-01-21T21:32:54.284Z,4.33
2019-01-21T21:37:58.744Z,4.29
2019-01-21T21:43:02.958Z,4.23
2019-01-21T21:48:07.146Z,4.20
2019-01-21T21:53:11.302Z,4.11
2019-01-21T21:58:15.520Z,4.04
2019-01-21T22:03:19.672Z,3.92
2019-01-21T22:08:23.790Z,3.90
2019-01-21T22:13:28.944Z,3.83
2019-01-21T22:18:33.138Z,3.82
2019-01-21T22:23:37.309Z,3.85
2019-01-21T22:28:41.404Z,3.78
2019-01-21T22:33:45.318Z,3.63
2019-01-21T22:38:49.279Z,3.60
2019-01-21T22:43:53.182Z,3.59
2019-01-21T22:48:57.100Z,3.52
2019-01-21T22:54:01.013Z,3.47
2019-01-21T22:59:04.934Z,3.40
2019-01-21T23:04:09.248Z,3.31
2019-01-21T23:09:13.248Z,3.31
2019-01-21T23:14:17.176Z,3.21
2019-01-21T23:19:21.270Z,3.23
2019-01-21T23:24:25.324Z,3.17
2019-01-21T23:29:29.237Z,3.12
2019-01-21T23:34:33.038Z,3.08
2019-01-21T23:39:36.932Z,2.96
2019-01-21T23:44:40.801Z,2.93
2019-01-21T23:49:44.624Z,2.89
2019-01-21T23:54:48.496Z,2.84
2019-01-21T23:59:52.504Z,2.78
